Time;durP1;ratioP1;P1;durP2;ratioP2;P2;SDS_P1;SDS_P2;PMS_P1;PMS_P2;Temp;Humidity;BMP_temperature;BMP_pressure;BME280_temperature;BME280_humidity;BME280_pressure;Samples;Min_cycle;Max_cycle;Signal;HPM_P1;HPM_P2
2022/04/15 00:00:08;;;;;;;34.97;18.17;;;;;;;7.09;92.54;102296.31;5046898;28;20074;-78
2022/04/15 00:02:33;;;;;;;38.92;19.83;;;;;;;7.05;92.71;102300.03;5031332;28;20037;-78
2022/04/15 00:04:59;;;;;;;31.70;18.77;;;;;;;7.02;92.84;102298.31;5032418;28;20036;-79
2022/04/15 00:07:25;;;;;;;32.03;19.95;;;;;;;6.98;92.37;102297.56;5051387;28;20033;-78
2022/04/15 00:09:50;;;;;;;33.00;20.95;;;;;;;6.97;92.43;102298.50;5032478;28;20040;-78
2022/04/15 00:12:27;;;;;;;33.78;18.65;;;;;;;6.93;92.49;102302.19;5042223;28;20061;-78
2022/04/15 00:14:52;;;;;;;32.13;18.83;;;;;;;6.87;92.44;102294.38;5030593;28;20215;-78
2022/04/15 00:17:18;;;;;;;31.45;18.75;;;;;;;6.81;91.94;102295.47;5059040;28;20115;-78
2022/04/15 00:19:46;;;;;;;33.35;19.15;;;;;;;6.76;92.28;102291.19;5064838;28;20017;-78
2022/04/15 00:22:11;;;;;;;32.83;19.75;;;;;;;6.73;92.50;102291.31;5051179;28;20021;-78
2022/04/15 00:24:36;;;;;;;32.30;19.38;;;;;;;6.69;92.10;102289.66;5047011;28;20028;-78
2022/04/15 00:27:02;;;;;;;31.75;20.02;;;;;;;6.65;92.90;102295.13;5031333;28;20025;-78
2022/04/15 00:29:28;;;;;;;33.15;19.98;;;;;;;6.64;92.54;102292.50;5030138;28;20037;-78
2022/04/15 00:31:53;;;;;;;33.85;20.08;;;;;;;6.61;92.92;102297.94;5047442;28;20511;-78
2022/04/15 00:34:19;;;;;;;31.75;17.80;;;;;;;6.58;92.27;102306.94;5048260;28;20020;-78
2022/04/15 00:36:44;;;;;;;32.80;18.35;;;;;;;6.54;92.59;102307.09;5039653;28;20040;-78
2022/04/15 00:39:09;;;;;;;32.75;19.25;;;;;;;6.52;92.39;102312.47;5029971;28;20373;-78
2022/04/15 00:41:35;;;;;;;29.52;18.20;;;;;;;6.48;92.47;102316.16;5041713;28;20056;-78
2022/04/15 00:44:00;;;;;;;30.20;17.95;;;;;;;6.44;92.97;102320.75;5045633;28;20033;-78
2022/04/15 00:46:25;;;;;;;33.92;19.17;;;;;;;6.43;92.85;102323.47;5047476;28;20495;-78
2022/04/15 00:48:50;;;;;;;31.95;20.50;;;;;;;6.41;92.87;102322.63;5042376;28;20108;-78
2022/04/15 00:51:16;;;;;;;32.05;19.38;;;;;;;6.37;93.12;102321.88;5050946;28;20096;-78
2022/04/15 00:53:42;;;;;;;32.83;19.77;;;;;;;6.33;92.83;102322.88;5036948;28;20040;-78
2022/04/15 00:56:09;;;;;;;28.70;17.75;;;;;;;6.28;92.87;102325.69;5043899;28;20091;-78
2022/04/15 00:58:37;;;;;;;34.30;20.02;;;;;;;6.26;92.84;102324.00;5054572;28;20025;-78
2022/04/15 01:01:03;;;;;;;30.85;19.05;;;;;;;6.24;92.99;102316.03;5039901;28;20072;-78
2022/04/15 01:03:29;;;;;;;31.02;18.80;;;;;;;6.19;92.96;102322.44;5044282;28;20053;-78
2022/04/15 01:05:59;;;;;;;32.45;19.77;;;;;;;6.18;93.10;102326.00;5048533;28;20048;-78
2022/04/15 01:08:27;;;;;;;31.13;18.95;;;;;;;6.17;93.31;102324.28;5054036;28;20117;-78
2022/04/15 01:10:56;;;;;;;33.72;21.08;;;;;;;6.14;92.91;102324.38;5040802;28;20033;-78
2022/04/15 01:13:23;;;;;;;33.47;17.85;;;;;;;6.09;92.98;102328.06;5050612;28;20053;-78
2022/04/15 01:15:51;;;;;;;31.27;18.02;;;;;;;6.07;93.16;102323.69;5048585;28;20070;-78
2022/04/15 01:18:16;;;;;;;31.00;17.98;;;;;;;6.08;92.98;102326.31;5056900;28;20546;-78
2022/04/15 01:20:42;;;;;;;28.88;16.65;;;;;;;6.06;93.02;102325.50;5045759;28;20032;-78
2022/04/15 01:23:09;;;;;;;32.40;16.23;;;;;;;6.05;92.94;102329.06;5034098;28;20040;-78
2022/04/15 01:25:34;;;;;;;30.23;15.93;;;;;;;6.02;92.75;102334.50;5019629;28;20052;-78
2022/04/15 01:28:00;;;;;;;31.30;17.33;;;;;;;5.96;92.65;102337.34;5052058;28;20048;-78
2022/04/15 01:30:26;;;;;;;29.10;14.68;;;;;;;5.98;93.07;102342.66;5032073;28;20033;-78
2022/04/15 01:32:51;;;;;;;27.80;14.65;;;;;;;6.01;93.56;102337.22;5034688;28;20041;-78
2022/04/15 01:35:18;;;;;;;26.33;15.15;;;;;;;6.02;93.04;102338.97;5033926;28;20025;-78
2022/04/15 01:37:44;;;;;;;27.55;15.23;;;;;;;6.00;93.08;102346.16;5032778;28;20414;-78
2022/04/15 01:40:11;;;;;;;28.02;14.88;;;;;;;5.98;93.18;102342.66;5033858;28;20035;-78
2022/04/15 01:42:38;;;;;;;27.92;16.13;;;;;;;5.95;92.87;102343.59;5039865;28;20083;-78
2022/04/15 01:45:05;;;;;;;28.73;16.15;;;;;;;5.90;92.91;102337.50;5050033;28;20025;-78
2022/04/15 01:47:30;;;;;;;34.67;17.23;;;;;;;5.87;93.11;102337.59;5050875;28;20039;-78
2022/04/15 01:49:55;;;;;;;28.17;16.10;;;;;;;5.84;92.81;102345.69;5038565;28;20037;-78
2022/04/15 01:52:21;;;;;;;29.42;17.10;;;;;;;5.82;92.80;102335.06;5051292;28;20040;-78
2022/04/15 01:54:46;;;;;;;30.92;17.58;;;;;;;5.78;92.66;102349.41;5042887;28;20386;-77
2022/04/15 01:57:12;;;;;;;29.25;16.02;;;;;;;5.74;92.50;102347.75;5049929;28;20367;-77
2022/04/15 01:59:38;;;;;;;27.48;15.50;;;;;;;5.72;92.77;102349.59;5033569;28;20025;-77
2022/04/15 02:02:04;;;;;;;29.08;15.80;;;;;;;5.69;92.42;102347.88;5032319;28;20022;-77
2022/04/15 02:04:30;;;;;;;31.23;16.20;;;;;;;5.67;92.67;102346.19;5049525;28;20025;-77
2022/04/15 02:06:55;;;;;;;31.05;17.63;;;;;;;5.65;92.70;102345.34;5041549;28;20041;-78
2022/04/15 02:09:20;;;;;;;31.35;18.02;;;;;;;5.62;92.84;102353.44;5035556;28;20041;-77
2022/04/15 02:11:46;;;;;;;31.80;17.33;;;;;;;5.60;92.97;102351.69;5052665;28;20607;-77
2022/04/15 02:14:14;;;;;;;30.85;17.65;;;;;;;5.58;92.89;102353.53;5051819;28;20032;-77
2022/04/15 02:16:40;;;;;;;31.88;19.02;;;;;;;5.56;92.98;102360.72;5058428;28;20028;-77
2022/04/15 02:19:06;;;;;;;31.45;19.42;;;;;;;5.54;93.35;102356.34;5070546;28;20047;-77
2022/04/15 02:21:32;;;;;;;29.92;18.15;;;;;;;5.55;93.26;102366.06;5036994;28;20017;-77
2022/04/15 02:23:57;;;;;;;29.67;16.35;;;;;;;5.52;92.91;102363.47;5051445;28;20666;-77
2022/04/15 02:26:23;;;;;;;30.13;16.60;;;;;;;5.50;92.93;102368.00;5052308;28;20021;-77
2022/04/15 02:28:48;;;;;;;28.83;15.52;;;;;;;5.45;92.72;102364.56;5053000;28;20082;-77
2022/04/15 02:31:13;;;;;;;26.48;15.18;;;;;;;5.41;92.84;102364.66;5049320;28;20051;-77
2022/04/15 02:33:39;;;;;;;29.35;16.30;;;;;;;5.40;92.37;102370.03;5031281;28;20033;-77
2022/04/15 02:36:04;;;;;;;31.70;18.10;;;;;;;5.38;92.34;102369.22;5032834;28;20025;-77
2022/04/15 02:38:30;;;;;;;31.95;18.67;;;;;;;5.38;92.63;102374.53;5031483;28;20022;-77
2022/04/15 02:40:55;;;;;;;29.70;15.50;;;;;;;5.34;92.93;102371.06;5035464;28;20060;-77
2022/04/15 02:43:22;;;;;;;27.75;13.95;;;;;;;5.34;92.39;102381.72;5049428;28;20581;-77
2022/04/15 02:45:47;;;;;;;24.17;13.13;;;;;;;5.33;93.03;102371.09;5031194;28;20045;-77
2022/04/15 02:48:13;;;;;;;26.25;13.18;;;;;;;5.32;92.30;102372.03;5068558;28;20480;-77
2022/04/15 02:50:39;;;;;;;29.15;14.07;;;;;;;5.32;93.20;102380.03;5044607;28;20037;-77
2022/04/15 02:53:05;;;;;;;24.88;11.65;;;;;;;5.33;92.69;102373.78;5039727;28;20109;-77
2022/04/15 02:55:31;;;;;;;23.48;11.60;;;;;;;5.32;92.53;102372.91;5048473;28;20029;-77
2022/04/15 02:57:56;;;;;;;25.67;10.85;;;;;;;5.31;91.98;102372.94;5030304;28;20523;-77
2022/04/15 03:00:22;;;;;;;23.88;11.63;;;;;;;5.33;92.48;102376.44;5031092;28;20031;-77
2022/04/15 03:02:47;;;;;;;25.60;13.38;;;;;;;5.29;92.31;102374.81;5037766;28;20528;-77
2022/04/15 03:05:12;;;;;;;26.50;13.30;;;;;;;5.27;92.04;102373.94;5051810;28;20032;-78
2022/04/15 03:07:38;;;;;;;26.45;12.43;;;;;;;5.27;92.28;102368.63;5046076;28;20033;-77
2022/04/15 03:10:05;;;;;;;24.48;11.70;;;;;;;5.22;92.19;102371.41;5032118;28;20512;-77
2022/04/15 03:12:38;;;;;;;27.48;14.80;;;;;;;5.17;92.02;102368.88;5048815;28;20411;-77
2022/04/15 03:15:05;;;;;;;28.65;15.00;;;;;;;5.15;92.32;102369.81;5050671;28;20044;-77
2022/04/15 03:17:31;;;;;;;28.92;15.35;;;;;;;5.15;92.99;102376.00;5062832;28;20021;-78
2022/04/15 03:19:56;;;;;;;30.67;14.85;;;;;;;5.16;92.34;102371.56;5063348;28;20586;-77
2022/04/15 03:22:22;;;;;;;31.02;16.15;;;;;;;5.12;92.25;102370.75;5050603;28;20033;-77
2022/04/15 03:24:50;;;;;;;24.48;12.15;;;;;;;5.08;92.41;102371.75;5051706;28;20028;-77
2022/04/15 03:27:16;;;;;;;26.00;13.80;;;;;;;5.06;92.38;102377.13;5051155;28;20037;-77
2022/04/15 03:29:43;;;;;;;26.88;14.65;;;;;;;5.01;92.20;102372.84;5045068;28;20108;-77
2022/04/15 03:32:08;;;;;;;27.10;14.23;;;;;;;4.99;92.52;102375.56;5030527;28;20027;-77
2022/04/15 03:34:34;;;;;;;27.30;14.18;;;;;;;4.96;92.13;102375.59;5031834;28;20508;-77
2022/04/15 03:36:59;;;;;;;26.80;14.50;;;;;;;4.93;92.44;102377.47;5030473;28;20028;-77
2022/04/15 03:39:24;;;;;;;30.05;15.25;;;;;;;4.93;92.27;102374.81;5031616;28;20029;-77
2022/04/15 03:41:49;;;;;;;27.02;14.63;;;;;;;4.93;92.03;102380.16;5046455;28;20524;-77
2022/04/15 03:44:15;;;;;;;31.98;15.70;;;;;;;4.89;92.25;102380.22;5030154;28;20382;-77
2022/04/15 03:46:40;;;;;;;28.80;14.75;;;;;;;4.89;92.10;102390.88;5032999;28;20033;-77
2022/04/15 03:49:06;;;;;;;30.27;15.00;;;;;;;4.87;92.10;102387.38;5032184;28;20030;-77
2022/04/15 03:51:31;;;;;;;26.67;14.38;;;;;;;4.88;92.49;102394.44;5051419;28;20029;-77
2022/04/15 03:53:56;;;;;;;31.88;15.75;;;;;;;4.91;92.92;102396.19;5051300;28;20071;-77
2022/04/15 03:56:22;;;;;;;29.27;16.30;;;;;;;4.92;92.36;102397.03;5049654;28;20571;-77
2022/04/15 03:58:47;;;;;;;25.73;13.10;;;;;;;4.92;92.19;102391.72;5049230;28;20029;-77
2022/04/15 04:01:12;;;;;;;32.85;16.83;;;;;;;4.92;93.04;102405.03;5051484;28;20032;-77
2022/04/15 04:03:38;;;;;;;28.60;16.25;;;;;;;4.93;93.01;102405.00;5048186;28;20043;-77
2022/04/15 04:06:03;;;;;;;29.38;15.45;;;;;;;4.97;93.44;102404.00;5050693;28;20025;-77
2022/04/15 04:08:28;;;;;;;28.90;16.33;;;;;;;5.04;93.88;102402.09;5051062;28;20025;-77
2022/04/15 04:10:54;;;;;;;31.92;15.63;;;;;;;5.11;93.87;102408.13;5050929;28;20021;-77
2022/04/15 04:13:19;;;;;;;31.38;15.18;;;;;;;5.18;94.50;102409.72;5042318;28;20488;-77
2022/04/15 04:15:45;;;;;;;33.25;19.05;;;;;;;5.28;95.42;102402.38;5031316;28;20385;-77
2022/04/15 04:18:13;;;;;;;39.72;19.83;;;;;;;5.35;95.67;102399.47;5071492;28;20025;-77
2022/04/15 04:20:38;;;;;;;61.13;24.15;;;;;;;5.49;97.96;102407.13;5063715;28;20085;-77
2022/04/15 04:23:03;;;;;;;49.28;24.08;;;;;;;5.63;99.25;102400.53;5056234;28;20037;-77
2022/04/15 04:25:29;;;;;;;41.92;22.90;;;;;;;5.75;99.61;102408.19;5048590;28;20029;-77
2022/04/15 04:27:54;;;;;;;58.25;23.13;;;;;;;5.86;99.46;102408.78;5037797;28;20496;-77
2022/04/15 04:30:20;;;;;;;57.13;25.20;;;;;;;6.00;100.00;102418.22;5042413;28;20013;-77
2022/04/15 04:32:52;;;;;;;55.13;22.95;;;;;;;6.07;100.00;102419.78;5057704;28;20021;-77
2022/04/15 04:35:19;;;;;;;54.13;24.77;;;;;;;6.17;100.00;102425.72;5057712;28;20550;-77
2022/04/15 04:37:45;;;;;;;46.38;22.85;;;;;;;6.21;100.00;102422.91;5054642;28;20035;-77
2022/04/15 04:40:11;;;;;;;71.70;23.63;;;;;;;6.28;100.00;102418.25;5056450;28;20021;-77
2022/04/15 04:42:37;;;;;;;49.10;21.25;;;;;;;6.33;100.00;102428.81;5055739;28;20074;-77
2022/04/15 04:45:02;;;;;;;44.28;21.70;;;;;;;6.36;100.00;102436.75;5057732;28;20499;-77
2022/04/15 04:47:28;;;;;;;53.53;19.70;;;;;;;6.39;100.00;102431.31;5069379;28;20500;-77
2022/04/15 04:49:55;;;;;;;36.42;19.83;;;;;;;6.39;100.00;102434.84;5051798;28;20025;-77
2022/04/15 04:52:22;;;;;;;42.63;20.60;;;;;;;6.40;100.00;102443.72;5036116;28;20532;-77
2022/04/15 04:54:47;;;;;;;44.28;19.58;;;;;;;6.42;100.00;102437.41;5040568;28;20033;-77
2022/04/15 04:57:13;;;;;;;45.05;19.45;;;;;;;6.43;100.00;102449.00;5056261;28;20032;-77
2022/04/15 04:59:38;;;;;;;44.00;19.55;;;;;;;6.44;100.00;102448.03;5056118;28;20532;-77
2022/04/15 05:02:03;;;;;;;41.45;20.80;;;;;;;6.47;100.00;102456.84;5056582;28;20031;-77
2022/04/15 05:04:29;;;;;;;50.50;20.58;;;;;;;6.51;100.00;102454.94;5057298;28;20025;-77
2022/04/15 05:06:54;;;;;;;47.78;19.45;;;;;;;6.53;100.00;102465.59;5057433;28;20025;-77
2022/04/15 05:09:20;;;;;;;48.83;18.38;;;;;;;6.52;100.00;102464.72;5057224;28;20392;-78
2022/04/15 05:11:46;;;;;;;38.17;16.17;;;;;;;6.53;100.00;102465.59;5039923;28;20140;-78
2022/04/15 05:14:11;;;;;;;36.00;15.13;;;;;;;6.56;100.00;102470.84;5053525;28;20106;-78
2022/04/15 05:16:37;;;;;;;35.65;14.85;;;;;;;6.58;100.00;102477.91;5060695;28;20384;-77
2022/04/15 05:19:02;;;;;;;32.80;16.40;;;;;;;6.62;100.00;102471.53;5077109;28;20396;-77
2022/04/15 05:21:27;;;;;;;37.47;16.95;;;;;;;6.65;100.00;102479.47;5065714;28;20041;-78
2022/04/15 05:23:52;;;;;;;35.33;17.95;;;;;;;6.67;100.00;102489.22;5048308;28;20029;-77
2022/04/15 05:26:20;;;;;;;38.65;17.10;;;;;;;6.65;100.00;102484.81;5036335;28;20034;-78
2022/04/15 05:28:45;;;;;;;35.03;17.55;;;;;;;6.67;100.00;102491.91;5045080;28;20056;-77
2022/04/15 05:31:11;;;;;;;40.10;15.18;;;;;;;6.68;100.00;102494.53;5040577;28;20525;-75
2022/04/15 05:33:37;;;;;;;34.05;17.90;;;;;;;6.70;100.00;102499.81;5047189;28;20048;-75
2022/04/15 05:36:02;;;;;;;40.67;16.77;;;;;;;6.72;100.00;102504.22;5049873;28;20037;-76
2022/04/15 05:38:28;;;;;;;37.28;18.23;;;;;;;6.75;100.00;102503.22;5046836;28;20075;-75
2022/04/15 05:40:53;;;;;;;37.83;17.77;;;;;;;6.80;100.00;102506.63;5035348;28;20480;-74
2022/04/15 05:43:19;;;;;;;32.13;17.35;;;;;;;6.82;100.00;102518.13;5041864;28;20033;-74
2022/04/15 05:45:44;;;;;;;28.17;16.27;;;;;;;6.85;100.00;102517.19;5047676;28;20035;-76
2022/04/15 05:48:09;;;;;;;28.48;16.85;;;;;;;6.88;100.00;102523.31;5068841;28;20476;-75
2022/04/15 05:50:35;;;;;;;29.25;15.98;;;;;;;6.93;100.00;102524.03;5058713;28;20492;-76
2022/04/15 05:53:00;;;;;;;31.85;16.95;;;;;;;6.97;100.00;102527.50;5038155;28;20032;-76
2022/04/15 05:55:25;;;;;;;45.47;18.58;;;;;;;6.97;100.00;102523.03;5042901;28;20029;-76
2022/04/15 05:57:51;;;;;;;31.73;16.73;;;;;;;7.00;100.00;102536.28;5044320;28;20028;-75
2022/04/15 06:00:17;;;;;;;32.03;17.83;;;;;;;7.02;100.00;102535.38;5052188;28;20074;-77
2022/04/15 06:02:42;;;;;;;32.88;17.92;;;;;;;7.05;100.00;102537.94;5046531;28;20104;-76
2022/04/15 06:05:08;;;;;;;31.35;17.55;;;;;;;7.09;100.00;102545.81;5043300;28;20025;-76
2022/04/15 06:07:34;;;;;;;33.92;18.65;;;;;;;7.09;100.00;102551.16;5049898;28;20029;-77
2022/04/15 06:09:59;;;;;;;31.30;17.95;;;;;;;7.14;100.00;102545.66;5046094;28;20036;-77
2022/04/15 06:13:22;;;;;;;31.52;16.77;;;;;;;7.18;100.00;102547.34;5063603;28;20495;-76
2022/04/15 06:15:28;;;;;;;32.15;18.08;;;;;;;7.25;100.00;102551.56;5054992;28;20041;-77
2022/04/15 06:17:54;;;;;;;29.65;17.13;;;;;;;7.31;100.00;102551.34;5048294;28;20476;-75
2022/04/15 06:20:19;;;;;;;30.58;17.15;;;;;;;7.34;100.00;102553.94;5071797;28;20024;-75
2022/04/15 06:22:45;;;;;;;31.73;18.98;;;;;;;7.37;100.00;102560.13;5049378;28;20459;-75
2022/04/15 06:25:11;;;;;;;29.65;15.73;;;;;;;7.38;100.00;102560.06;5032937;28;20404;-76
2022/04/15 06:27:36;;;;;;;31.55;17.40;;;;;;;7.38;100.00;102557.41;5046388;28;20029;-76
2022/04/15 06:30:03;;;;;;;29.50;16.83;;;;;;;7.41;100.00;102557.28;5049447;28;20032;-76
2022/04/15 06:32:28;;;;;;;30.95;17.20;;;;;;;7.44;100.00;102567.03;5057849;28;20419;-76
2022/04/15 06:34:53;;;;;;;29.13;16.52;;;;;;;7.45;100.00;102568.75;5055573;28;20040;-76
2022/04/15 06:37:19;;;;;;;35.22;18.38;;;;;;;7.43;100.00;102570.63;5051153;28;20392;-74
2022/04/15 06:39:50;;;;;;;28.92;16.10;;;;;;;7.46;100.00;102578.53;5065327;28;20047;-75
2022/04/15 06:42:19;;;;;;;30.88;17.42;;;;;;;7.43;100.00;102576.84;5071659;28;20392;-75
2022/04/15 06:44:44;;;;;;;30.35;16.63;;;;;;;7.46;100.00;102575.88;5060738;28;20469;-75
2022/04/15 06:47:10;;;;;;;29.38;16.90;;;;;;;7.49;100.00;102586.47;5060397;28;20031;-76
2022/04/15 06:49:35;;;;;;;30.58;17.20;;;;;;;7.50;100.00;102582.88;5069996;28;20074;-75
2022/04/15 06:52:00;;;;;;;30.67;16.08;;;;;;;7.52;100.00;102581.00;5071388;28;20383;-76
2022/04/15 06:54:25;;;;;;;27.65;15.35;;;;;;;7.53;100.00;102593.47;5072219;28;20024;-74
2022/04/15 06:56:51;;;;;;;30.83;16.30;;;;;;;7.55;100.00;102596.97;5072650;28;20032;-75
2022/04/15 06:59:16;;;;;;;29.90;14.98;;;;;;;7.58;100.00;102586.16;5071647;28;20035;-75
2022/04/15 07:01:41;;;;;;;28.83;15.70;;;;;;;7.60;100.00;102584.31;5071639;28;20012;-75
2022/04/15 07:04:07;;;;;;;29.55;16.67;;;;;;;7.62;100.00;102595.84;5055616;28;20033;-75
2022/04/15 07:06:32;;;;;;;30.13;16.75;;;;;;;7.65;100.00;102589.50;5052283;28;20092;-76
2022/04/15 07:08:57;;;;;;;30.17;17.02;;;;;;;7.66;100.00;102594.81;5052270;28;20028;-75
2022/04/15 07:11:22;;;;;;;27.15;15.73;;;;;;;7.68;99.94;102592.09;5052080;28;20035;-75
2022/04/15 07:13:48;;;;;;;30.70;17.70;;;;;;;7.72;100.00;102593.75;5048771;28;20057;-75
2022/04/15 07:16:14;;;;;;;28.73;16.52;;;;;;;7.73;99.92;102597.28;5035408;28;20038;-75
2022/04/15 07:18:39;;;;;;;29.73;15.63;;;;;;;7.75;100.00;102595.44;5062929;28;20021;-75
2022/04/15 07:21:04;;;;;;;31.23;16.95;;;;;;;7.79;100.00;102597.06;5052061;28;20143;-75
2022/04/15 07:23:29;;;;;;;29.60;15.55;;;;;;;7.82;99.82;102594.31;5041627;28;20025;-76
2022/04/15 07:25:55;;;;;;;28.73;14.15;;;;;;;7.86;99.57;102603.97;5040532;28;20388;-76
2022/04/15 07:28:20;;;;;;;29.40;15.00;;;;;;;7.88;98.96;102605.69;5030701;28;20120;-76
2022/04/15 07:30:45;;;;;;;28.70;15.93;;;;;;;7.94;99.44;102609.97;5035987;28;20124;-75
2022/04/15 07:33:10;;;;;;;35.25;16.35;;;;;;;7.98;99.47;102618.75;5030629;28;20443;-75
2022/04/15 07:35:36;;;;;;;29.95;16.67;;;;;;;8.02;99.51;102620.41;5030911;28;20056;-75
2022/04/15 07:38:01;;;;;;;33.50;17.25;;;;;;;8.08;99.17;102620.19;5033337;28;20024;-75
2022/04/15 07:40:29;;;;;;;26.77;14.07;;;;;;;8.14;99.17;102619.09;5042099;28;20397;-75
2022/04/15 07:42:57;;;;;;;28.42;16.08;;;;;;;8.18;98.84;102618.94;5031385;28;20494;-75
2022/04/15 07:45:23;;;;;;;29.98;15.50;;;;;;;8.19;98.01;102620.69;5030300;28;20023;-75
2022/04/15 07:47:49;;;;;;;31.30;15.18;;;;;;;8.22;97.76;102615.22;5059150;28;20024;-75
2022/04/15 07:50:14;;;;;;;29.13;16.17;;;;;;;8.30;97.66;102617.66;5071626;28;20094;-75
2022/04/15 07:52:39;;;;;;;34.92;15.98;;;;;;;8.37;98.27;102618.28;5060958;28;20017;-75
2022/04/15 07:55:05;;;;;;;31.48;15.52;;;;;;;8.39;96.83;102627.16;5051277;28;20020;-75
2022/04/15 07:57:30;;;;;;;32.40;16.48;;;;;;;8.41;96.73;102622.63;5050128;28;20029;-75
2022/04/15 07:59:56;;;;;;;29.00;15.75;;;;;;;8.40;96.53;102621.75;5050261;28;20021;-75
2022/04/15 08:02:21;;;;;;;34.28;17.77;;;;;;;8.45;96.49;102620.72;5051530;28;20024;-75
2022/04/15 08:04:47;;;;;;;33.20;14.98;;;;;;;8.47;96.54;102622.44;5050121;28;20025;-75
2022/04/15 08:07:12;;;;;;;30.45;17.27;;;;;;;8.52;97.03;102620.47;5050078;28;20082;-76
2022/04/15 08:09:39;;;;;;;27.00;13.52;;;;;;;8.57;94.83;102620.28;5051470;28;20056;-75
2022/04/15 08:12:09;;;;;;;24.58;12.05;;;;;;;8.60;93.96;102622.00;5051364;28;20128;-75
2022/04/15 08:14:34;;;;;;;;;;;;;;;8.71;94.91;102619.78;5050477;28;20120;-75
2022/04/15 08:16:59;;;;;;;24.60;11.77;;;;;;;8.73;94.60;102615.25;5059165;28;19999;-75
2022/04/15 08:19:25;;;;;;;25.27;12.60;;;;;;;8.81;94.84;102623.00;5071234;28;20029;-75
2022/04/15 08:21:51;;;;;;;29.67;14.60;;;;;;;8.84;93.62;102622.88;5070007;28;20016;-75
2022/04/15 08:24:16;;;;;;;28.55;15.52;;;;;;;8.90;93.54;102625.31;5071041;28;20032;-75
2022/04/15 08:26:44;;;;;;;25.98;14.18;;;;;;;8.91;92.56;102624.41;5069961;28;20024;-75
2022/04/15 08:29:10;;;;;;;26.58;13.25;;;;;;;8.91;92.41;102627.09;5071126;28;20028;-75
2022/04/15 08:31:35;;;;;;;31.20;14.13;;;;;;;8.96;92.72;102625.13;5054938;28;20136;-75
2022/04/15 08:34:01;;;;;;;28.08;14.73;;;;;;;8.99;92.96;102622.31;5051128;28;20029;-75
2022/04/15 08:36:26;;;;;;;27.58;13.65;;;;;;;9.03;92.90;102629.28;5049929;28;20538;-75
2022/04/15 08:38:52;;;;;;;28.00;13.02;;;;;;;9.04;91.36;102631.03;5050951;28;20112;-75
2022/04/15 08:41:19;;;;;;;28.17;13.75;;;;;;;9.08;91.67;102635.38;5050998;28;20068;-75
2022/04/15 08:43:44;;;;;;;25.10;12.55;;;;;;;9.13;92.39;102635.19;5051082;28;20021;-75
2022/04/15 08:46:12;;;;;;;25.02;11.77;;;;;;;9.17;90.14;102641.31;5050650;28;20476;-75
2022/04/15 08:48:39;;;;;;;23.45;10.95;;;;;;;9.18;89.26;102648.41;5070963;28;20025;-75
2022/04/15 08:51:05;;;;;;;22.63;10.32;;;;;;;9.27;87.95;102653.44;5071014;28;20047;-75
2022/04/15 08:53:32;;;;;;;27.60;11.00;;;;;;;9.41;88.52;102644.84;5070796;28;20039;-75
2022/04/15 08:55:58;;;;;;;21.42;9.43;;;;;;;9.48;87.23;102645.47;5070809;28;20480;-75
2022/04/15 08:58:25;;;;;;;21.45;9.57;;;;;;;9.53;84.92;102643.47;5071080;28;20024;-75
2022/04/15 09:00:50;;;;;;;24.20;10.32;;;;;;;9.68;86.23;102648.22;5070970;28;20028;-75
2022/04/15 09:03:15;;;;;;;23.27;10.00;;;;;;;9.78;86.57;102648.72;5062597;28;20532;-75
2022/04/15 09:05:40;;;;;;;22.83;9.93;;;;;;;9.79;84.86;102651.38;5052861;28;20021;-76
2022/04/15 09:08:11;;;;;;;22.40;10.13;;;;;;;9.88;84.63;102652.78;5053208;28;20017;-75
2022/04/15 09:10:40;;;;;;;25.52;10.18;;;;;;;9.99;83.85;102664.91;5054490;28;20025;-75
2022/04/15 09:13:05;;;;;;;22.88;9.18;;;;;;;10.08;82.06;102657.31;5054442;28;20049;-75
2022/04/15 09:15:31;;;;;;;25.20;10.98;;;;;;;10.12;82.53;102655.38;5054287;28;20121;-75
2022/04/15 09:17:59;;;;;;;23.30;10.55;;;;;;;10.19;82.04;102664.94;5070110;28;20037;-75
2022/04/15 09:20:30;;;;;;;20.25;8.80;;;;;;;10.31;81.51;102663.53;5073301;28;20127;-75
2022/04/15 09:22:56;;;;;;;22.10;10.32;;;;;;;10.37;81.69;102660.59;5073907;28;20492;-75
2022/04/15 09:25:25;;;;;;;22.35;9.63;;;;;;;10.47;79.88;102667.31;5074384;28;20020;-75
2022/04/15 09:27:56;;;;;;;21.83;10.00;;;;;;;10.58;80.27;102660.59;5073053;28;20027;-75
2022/04/15 09:30:35;;;;;;;23.20;9.57;;;;;;;10.70;80.82;102662.72;5074174;28;20023;-75
2022/04/15 09:33:01;;;;;;;20.70;8.80;;;;;;;10.72;77.18;102666.25;5074215;28;20025;-75
2022/04/15 09:35:28;;;;;;;20.17;9.10;;;;;;;10.80;78.85;102668.59;5072721;28;20059;-75
2022/04/15 09:37:53;;;;;;;23.30;10.02;;;;;;;10.86;77.75;102662.91;5074171;28;20410;-75
2022/04/15 09:40:25;;;;;;;22.73;10.20;;;;;;;10.91;76.31;102662.69;5072960;28;20028;-75
2022/04/15 09:42:52;;;;;;;25.40;10.05;;;;;;;10.99;76.77;102666.78;5074011;28;20085;-75
2022/04/15 09:45:20;;;;;;;21.73;10.75;;;;;;;11.10;76.12;102665.41;5073984;28;20024;-75
2022/04/15 09:47:52;;;;;;;22.67;9.57;;;;;;;11.14;74.53;102667.03;5074003;28;20067;-75
2022/04/15 09:50:22;;;;;;;20.95;10.27;;;;;;;11.25;75.79;102666.53;5073841;28;20043;-75
2022/04/15 09:52:54;;;;;;;21.52;9.70;;;;;;;11.35;76.24;102662.47;5062556;28;20400;-75
2022/04/15 09:55:23;;;;;;;22.20;10.18;;;;;;;11.45;75.35;102673.66;5052467;28;20490;-75
2022/04/15 09:57:49;;;;;;;21.92;9.15;;;;;;;11.53;76.06;102668.78;5053898;28;20234;-75
2022/04/15 10:00:16;;;;;;;19.63;8.60;;;;;;;11.50;72.21;102671.63;5052235;28;20036;-75
2022/04/15 10:02:42;;;;;;;19.85;8.60;;;;;;;11.52;72.55;102672.41;5051999;28;20435;-75
2022/04/15 10:05:08;;;;;;;21.20;9.07;;;;;;;11.50;72.20;102672.50;5052148;28;20080;-76
2022/04/15 10:07:34;;;;;;;19.80;8.43;;;;;;;11.57;73.31;102665.00;5053301;28;20032;-76
2022/04/15 10:10:00;;;;;;;19.80;9.05;;;;;;;11.57;71.81;102672.19;5053340;28;20021;-76
2022/04/15 10:12:26;;;;;;;19.10;8.48;;;;;;;11.59;71.64;102663.09;5053370;28;20052;-76
2022/04/15 10:14:52;;;;;;;20.02;9.00;;;;;;;11.70;72.87;102668.84;5052976;28;20457;-76
2022/04/15 10:17:20;;;;;;;25.05;9.50;;;;;;;11.78;73.19;102663.06;5062357;28;20081;-76
2022/04/15 10:19:46;;;;;;;18.60;8.52;;;;;;;11.85;73.81;102660.94;5058799;28;20033;-76
2022/04/15 10:22:14;;;;;;;21.05;9.35;;;;;;;11.87;75.02;102659.03;5050392;28;20448;-76
2022/04/15 10:24:39;;;;;;;21.48;9.40;;;;;;;11.87;74.51;102665.31;5050445;28;20032;-72
2022/04/15 10:27:04;;;;;;;21.52;8.73;;;;;;;11.86;72.94;102663.56;5053662;28;20401;-76
2022/04/15 10:29:30;;;;;;;20.17;8.70;;;;;;;11.83;72.90;102660.13;5051727;28;20110;-77
2022/04/15 10:31:56;;;;;;;21.10;8.63;;;;;;;11.85;72.42;102656.44;5050003;28;20044;-76
2022/04/15 10:34:22;;;;;;;19.25;8.23;;;;;;;11.92;70.33;102659.69;5036652;28;20036;-76
2022/04/15 10:36:50;;;;;;;19.98;8.63;;;;;;;12.02;70.73;102652.94;5048495;28;20029;-76
2022/04/15 10:39:23;;;;;;;17.80;7.95;;;;;;;12.16;70.44;102649.50;5047256;28;20036;-76
2022/04/15 10:41:49;;;;;;;19.73;8.60;;;;;;;12.27;70.87;102648.09;5015081;28;20041;-77
2022/04/15 10:44:31;;;;;;;20.92;9.60;;;;;;;12.28;69.36;102655.25;5031477;28;20393;-76
2022/04/15 10:46:58;;;;;;;24.40;9.07;;;;;;;12.28;68.60;102652.53;5047819;28;20021;-76
2022/04/15 10:49:27;;;;;;;22.50;9.07;;;;;;;12.34;68.94;102654.91;5050032;28;20029;-76
2022/04/15 10:51:58;;;;;;;17.98;7.95;;;;;;;12.40;68.34;102651.88;5040164;28;20508;-74
2022/04/15 10:54:36;;;;;;;21.67;9.00;;;;;;;12.45;67.72;102649.84;5050906;28;20032;-74
2022/04/15 10:57:09;;;;;;;19.60;9.05;;;;;;;12.65;70.97;102642.50;5052404;28;20036;-74
2022/04/15 11:02:24;;;;;;;21.95;8.88;;;;;;;12.85;67.54;102639.59;5052450;28;20167;-69
2022/04/15 11:04:51;;;;;;;20.45;8.95;;;;;;;12.97;68.61;102645.28;5051348;28;20028;-69
2022/04/15 11:07:40;;;;;;;19.15;8.50;;;;;;;13.05;67.13;102632.25;5051079;28;20025;-68
2022/04/15 11:10:35;;;;;;;20.77;8.95;;;;;;;13.13;66.36;102638.09;5052165;28;20061;-77
2022/04/15 11:13:00;;;;;;;19.90;8.32;;;;;;;13.25;66.57;102641.94;5051953;28;20079;-73